sim
Sign-in with your pilot id or email,
or register
Callsign
Passwort

Schedule Details

Flight Number: DLH2415
Departure: Stockholm Arlanda Airport (ESSA) at 11:20
Arrival: Munich Airport (EDDM) at 13:30
Route: Lufthansa Passenger Schedule. Enter filed route here before submitting Pirep.

Weather Information
Getting current METAR information for ESSA 282050Z 04007KT 9999 SCT006 OVC019 13/12 Q1016 TEMPO BKN009
Getting current METAR information for EDDM 282050Z 08003KT CAVOK 09/07 Q1015 NOSIG

Schedule Frequency

Route Map